sensor_id;sensor_type;location;lat;lon;timestamp;P1;durP1;ratioP1;P2;durP2;ratioP2
35675;SDS011;21790;42.668;23.298;2023-03-17T00:00:43;9.55;;;7.15;;
35675;SDS011;21790;42.668;23.298;2023-03-17T00:06:05;10.02;;;7.10;;
35675;SDS011;21790;42.668;23.298;2023-03-17T00:08:40;11.68;;;7.85;;
35675;SDS011;21790;42.668;23.298;2023-03-17T00:11:14;10.27;;;6.45;;
35675;SDS011;21790;42.668;23.298;2023-03-17T00:13:41;10.90;;;6.93;;
35675;SDS011;21790;42.668;23.298;2023-03-17T00:16:15;10.15;;;6.72;;
35675;SDS011;21790;42.668;23.298;2023-03-17T00:18:48;9.65;;;6.60;;
35675;SDS011;21790;42.668;23.298;2023-03-17T00:21:26;9.75;;;6.60;;
35675;SDS011;21790;42.668;23.298;2023-03-17T00:23:56;9.73;;;6.45;;
35675;SDS011;21790;42.668;23.298;2023-03-17T00:26:22;8.90;;;7.07;;
35675;SDS011;21790;42.668;23.298;2023-03-17T00:28:49;11.50;;;6.30;;
35675;SDS011;21790;42.668;23.298;2023-03-17T00:33:53;9.38;;;6.85;;
35675;SDS011;21790;42.668;23.298;2023-03-17T00:36:21;9.77;;;6.28;;
35675;SDS011;21790;42.668;23.298;2023-03-17T00:41:18;9.57;;;6.65;;
35675;SDS011;21790;42.668;23.298;2023-03-17T00:43:44;10.90;;;6.50;;
35675;SDS011;21790;42.668;23.298;2023-03-17T00:46:14;9.63;;;7.25;;
35675;SDS011;21790;42.668;23.298;2023-03-17T00:51:10;10.20;;;6.53;;
35675;SDS011;21790;42.668;23.298;2023-03-17T00:53:36;10.18;;;6.93;;
35675;SDS011;21790;42.668;23.298;2023-03-17T00:56:02;10.35;;;6.88;;
35675;SDS011;21790;42.668;23.298;2023-03-17T01:00:58;12.60;;;6.90;;
35675;SDS011;21790;42.668;23.298;2023-03-17T01:03:25;7.65;;;6.10;;
35675;SDS011;21790;42.668;23.298;2023-03-17T01:05:52;9.95;;;6.70;;
35675;SDS011;21790;42.668;23.298;2023-03-17T01:08:22;8.90;;;6.70;;
35675;SDS011;21790;42.668;23.298;2023-03-17T01:10:49;9.43;;;5.95;;
35675;SDS011;21790;42.668;23.298;2023-03-17T01:13:15;8.50;;;6.05;;
35675;SDS011;21790;42.668;23.298;2023-03-17T01:15:42;7.55;;;5.85;;
35675;SDS011;21790;42.668;23.298;2023-03-17T01:18:11;7.45;;;5.88;;
35675;SDS011;21790;42.668;23.298;2023-03-17T01:20:40;9.55;;;6.30;;
35675;SDS011;21790;42.668;23.298;2023-03-17T01:23:09;8.95;;;6.60;;
35675;SDS011;21790;42.668;23.298;2023-03-17T01:25:36;10.05;;;6.25;;
35675;SDS011;21790;42.668;23.298;2023-03-17T01:28:03;10.20;;;6.43;;
35675;SDS011;21790;42.668;23.298;2023-03-17T01:30:32;8.05;;;5.78;;
35675;SDS011;21790;42.668;23.298;2023-03-17T01:33:02;7.45;;;5.82;;
35675;SDS011;21790;42.668;23.298;2023-03-17T01:35:28;8.23;;;5.18;;
35675;SDS011;21790;42.668;23.298;2023-03-17T01:37:55;5.78;;;5.15;;
35675;SDS011;21790;42.668;23.298;2023-03-17T01:40:27;7.35;;;5.65;;
35675;SDS011;21790;42.668;23.298;2023-03-17T01:43:02;7.57;;;5.38;;
35675;SDS011;21790;42.668;23.298;2023-03-17T01:48:37;7.32;;;5.47;;
35675;SDS011;21790;42.668;23.298;2023-03-17T01:51:08;7.25;;;5.50;;
35675;SDS011;21790;42.668;23.298;2023-03-17T01:53:37;6.57;;;5.45;;
35675;SDS011;21790;42.668;23.298;2023-03-17T01:56:04;7.47;;;5.53;;
35675;SDS011;21790;42.668;23.298;2023-03-17T01:58:30;6.78;;;5.10;;
35675;SDS011;21790;42.668;23.298;2023-03-17T02:00:57;7.45;;;5.40;;
35675;SDS011;21790;42.668;23.298;2023-03-17T02:03:23;8.00;;;5.53;;
35675;SDS011;21790;42.668;23.298;2023-03-17T02:05:50;6.75;;;5.00;;
35675;SDS011;21790;42.668;23.298;2023-03-17T02:08:17;7.38;;;5.45;;
35675;SDS011;21790;42.668;23.298;2023-03-17T02:10:46;9.02;;;5.68;;
35675;SDS011;21790;42.668;23.298;2023-03-17T02:13:14;7.60;;;5.65;;
35675;SDS011;21790;42.668;23.298;2023-03-17T02:15:42;7.50;;;5.40;;
35675;SDS011;21790;42.668;23.298;2023-03-17T02:18:12;7.17;;;5.33;;
35675;SDS011;21790;42.668;23.298;2023-03-17T02:23:05;7.93;;;5.18;;
35675;SDS011;21790;42.668;23.298;2023-03-17T02:25:33;7.10;;;5.13;;
35675;SDS011;21790;42.668;23.298;2023-03-17T02:28:05;6.22;;;5.18;;
35675;SDS011;21790;42.668;23.298;2023-03-17T02:30:34;8.88;;;5.15;;
35675;SDS011;21790;42.668;23.298;2023-03-17T02:33:01;9.77;;;5.40;;
35675;SDS011;21790;42.668;23.298;2023-03-17T02:35:28;8.82;;;5.53;;
35675;SDS011;21790;42.668;23.298;2023-03-17T02:37:55;7.80;;;5.32;;
35675;SDS011;21790;42.668;23.298;2023-03-17T02:40:21;8.40;;;5.50;;
35675;SDS011;21790;42.668;23.298;2023-03-17T02:42:48;8.20;;;5.53;;
35675;SDS011;21790;42.668;23.298;2023-03-17T02:45:15;8.15;;;5.70;;
35675;SDS011;21790;42.668;23.298;2023-03-17T02:47:41;7.97;;;5.65;;
35675;SDS011;21790;42.668;23.298;2023-03-17T02:50:07;7.13;;;5.13;;
35675;SDS011;21790;42.668;23.298;2023-03-17T02:52:41;7.95;;;6.05;;
35675;SDS011;21790;42.668;23.298;2023-03-17T02:55:07;8.82;;;5.68;;
35675;SDS011;21790;42.668;23.298;2023-03-17T02:57:34;7.20;;;5.45;;
35675;SDS011;21790;42.668;23.298;2023-03-17T03:00:00;8.23;;;5.75;;
35675;SDS011;21790;42.668;23.298;2023-03-17T03:02:28;6.80;;;5.40;;
35675;SDS011;21790;42.668;23.298;2023-03-17T03:04:54;9.25;;;6.35;;
35675;SDS011;21790;42.668;23.298;2023-03-17T03:07:20;8.27;;;5.88;;
35675;SDS011;21790;42.668;23.298;2023-03-17T03:09:46;8.60;;;5.82;;
35675;SDS011;21790;42.668;23.298;2023-03-17T03:12:13;8.68;;;5.70;;
35675;SDS011;21790;42.668;23.298;2023-03-17T03:14:40;7.80;;;6.45;;
35675;SDS011;21790;42.668;23.298;2023-03-17T03:17:06;7.75;;;6.00;;
35675;SDS011;21790;42.668;23.298;2023-03-17T03:19:35;7.38;;;6.00;;
35675;SDS011;21790;42.668;23.298;2023-03-17T03:22:00;8.48;;;5.93;;
35675;SDS011;21790;42.668;23.298;2023-03-17T03:24:27;7.30;;;5.95;;
35675;SDS011;21790;42.668;23.298;2023-03-17T03:26:53;7.72;;;5.68;;
35675;SDS011;21790;42.668;23.298;2023-03-17T03:29:18;9.00;;;6.63;;
35675;SDS011;21790;42.668;23.298;2023-03-17T03:31:44;9.38;;;6.28;;
35675;SDS011;21790;42.668;23.298;2023-03-17T03:34:12;7.63;;;5.63;;
35675;SDS011;21790;42.668;23.298;2023-03-17T03:36:39;9.60;;;5.78;;
35675;SDS011;21790;42.668;23.298;2023-03-17T03:39:08;8.68;;;6.10;;
35675;SDS011;21790;42.668;23.298;2023-03-17T03:41:34;11.43;;;5.88;;
35675;SDS011;21790;42.668;23.298;2023-03-17T03:44:00;9.07;;;6.43;;
35675;SDS011;21790;42.668;23.298;2023-03-17T03:46:26;7.38;;;5.80;;
35675;SDS011;21790;42.668;23.298;2023-03-17T03:48:52;8.38;;;6.05;;
35675;SDS011;21790;42.668;23.298;2023-03-17T03:51:18;11.80;;;6.30;;
35675;SDS011;21790;42.668;23.298;2023-03-17T03:53:44;10.63;;;6.30;;
35675;SDS011;21790;42.668;23.298;2023-03-17T03:56:12;8.90;;;6.07;;
35675;SDS011;21790;42.668;23.298;2023-03-17T03:58:38;9.48;;;6.38;;
35675;SDS011;21790;42.668;23.298;2023-03-17T04:01:06;11.45;;;6.53;;
35675;SDS011;21790;42.668;23.298;2023-03-17T04:03:34;7.93;;;6.10;;
35675;SDS011;21790;42.668;23.298;2023-03-17T04:06:00;13.02;;;6.32;;
35675;SDS011;21790;42.668;23.298;2023-03-17T04:08:28;8.43;;;6.07;;
35675;SDS011;21790;42.668;23.298;2023-03-17T04:10:55;8.10;;;6.00;;
35675;SDS011;21790;42.668;23.298;2023-03-17T04:13:22;9.25;;;6.10;;
35675;SDS011;21790;42.668;23.298;2023-03-17T04:15:47;9.57;;;6.57;;
35675;SDS011;21790;42.668;23.298;2023-03-17T04:18:13;10.35;;;6.20;;
35675;SDS011;21790;42.668;23.298;2023-03-17T04:20:39;9.02;;;6.15;;
35675;SDS011;21790;42.668;23.298;2023-03-17T04:23:05;8.15;;;6.05;;
35675;SDS011;21790;42.668;23.298;2023-03-17T04:25:31;9.57;;;6.18;;
35675;SDS011;21790;42.668;23.298;2023-03-17T04:27:57;9.70;;;5.97;;
35675;SDS011;21790;42.668;23.298;2023-03-17T04:30:23;7.57;;;5.82;;
35675;SDS011;21790;42.668;23.298;2023-03-17T04:32:48;9.80;;;5.90;;
35675;SDS011;21790;42.668;23.298;2023-03-17T04:35:16;9.70;;;6.03;;
35675;SDS011;21790;42.668;23.298;2023-03-17T04:37:44;8.68;;;6.28;;
35675;SDS011;21790;42.668;23.298;2023-03-17T04:40:11;11.05;;;6.03;;
35675;SDS011;21790;42.668;23.298;2023-03-17T04:42:37;9.95;;;5.78;;
35675;SDS011;21790;42.668;23.298;2023-03-17T04:45:04;9.65;;;6.50;;
35675;SDS011;21790;42.668;23.298;2023-03-17T04:47:31;8.02;;;5.95;;
35675;SDS011;21790;42.668;23.298;2023-03-17T04:49:57;8.55;;;5.75;;
35675;SDS011;21790;42.668;23.298;2023-03-17T04:52:23;8.57;;;5.75;;
35675;SDS011;21790;42.668;23.298;2023-03-17T04:54:49;9.55;;;5.72;;
35675;SDS011;21790;42.668;23.298;2023-03-17T04:57:15;7.93;;;6.18;;
35675;SDS011;21790;42.668;23.298;2023-03-17T04:59:40;8.15;;;5.82;;
35675;SDS011;21790;42.668;23.298;2023-03-17T05:02:06;11.45;;;7.28;;
35675;SDS011;21790;42.668;23.298;2023-03-17T05:04:32;15.85;;;6.93;;
35675;SDS011;21790;42.668;23.298;2023-03-17T05:06:58;10.02;;;6.80;;
35675;SDS011;21790;42.668;23.298;2023-03-17T05:09:25;10.07;;;6.70;;
35675;SDS011;21790;42.668;23.298;2023-03-17T05:11:52;10.73;;;6.85;;
35675;SDS011;21790;42.668;23.298;2023-03-17T05:14:18;9.05;;;6.75;;
35675;SDS011;21790;42.668;23.298;2023-03-17T05:16:45;13.00;;;6.38;;
35675;SDS011;21790;42.668;23.298;2023-03-17T05:19:12;10.23;;;6.68;;
35675;SDS011;21790;42.668;23.298;2023-03-17T05:21:37;11.25;;;7.15;;
35675;SDS011;21790;42.668;23.298;2023-03-17T05:24:03;8.93;;;6.65;;
35675;SDS011;21790;42.668;23.298;2023-03-17T05:26:29;8.02;;;6.43;;
35675;SDS011;21790;42.668;23.298;2023-03-17T05:28:55;10.98;;;7.43;;
35675;SDS011;21790;42.668;23.298;2023-03-17T05:31:21;10.25;;;6.57;;
35675;SDS011;21790;42.668;23.298;2023-03-17T05:33:47;9.35;;;6.97;;
35675;SDS011;21790;42.668;23.298;2023-03-17T05:36:13;8.85;;;6.18;;
35675;SDS011;21790;42.668;23.298;2023-03-17T05:38:39;10.00;;;7.57;;
35675;SDS011;21790;42.668;23.298;2023-03-17T05:41:06;9.60;;;6.25;;
35675;SDS011;21790;42.668;23.298;2023-03-17T05:43:32;11.95;;;7.00;;
35675;SDS011;21790;42.668;23.298;2023-03-17T05:45:57;12.40;;;7.25;;
35675;SDS011;21790;42.668;23.298;2023-03-17T05:48:23;16.23;;;6.85;;
35675;SDS011;21790;42.668;23.298;2023-03-17T05:50:50;8.38;;;6.05;;
35675;SDS011;21790;42.668;23.298;2023-03-17T05:53:16;11.27;;;6.90;;
35675;SDS011;21790;42.668;23.298;2023-03-17T05:55:42;9.50;;;6.43;;
35675;SDS011;21790;42.668;23.298;2023-03-17T05:58:07;8.65;;;6.20;;
35675;SDS011;21790;42.668;23.298;2023-03-17T06:00:34;8.80;;;6.88;;
35675;SDS011;21790;42.668;23.298;2023-03-17T06:03:00;11.57;;;7.10;;
35675;SDS011;21790;42.668;23.298;2023-03-17T06:05:28;10.23;;;6.60;;
35675;SDS011;21790;42.668;23.298;2023-03-17T06:07:53;9.75;;;6.97;;
35675;SDS011;21790;42.668;23.298;2023-03-17T06:10:19;13.35;;;8.30;;
35675;SDS011;21790;42.668;23.298;2023-03-17T06:12:45;13.02;;;6.50;;
35675;SDS011;21790;42.668;23.298;2023-03-17T06:15:11;9.77;;;6.45;;
35675;SDS011;21790;42.668;23.298;2023-03-17T06:17:36;9.70;;;6.20;;
35675;SDS011;21790;42.668;23.298;2023-03-17T06:20:02;7.00;;;5.03;;
35675;SDS011;21790;42.668;23.298;2023-03-17T06:22:29;8.93;;;5.75;;
35675;SDS011;21790;42.668;23.298;2023-03-17T06:24:55;8.60;;;6.22;;
35675;SDS011;21790;42.668;23.298;2023-03-17T06:27:21;10.32;;;7.38;;
35675;SDS011;21790;42.668;23.298;2023-03-17T06:29:46;9.90;;;6.60;;
35675;SDS011;21790;42.668;23.298;2023-03-17T06:32:15;9.88;;;7.20;;
35675;SDS011;21790;42.668;23.298;2023-03-17T06:34:41;11.10;;;6.95;;
35675;SDS011;21790;42.668;23.298;2023-03-17T06:37:07;11.05;;;6.50;;
35675;SDS011;21790;42.668;23.298;2023-03-17T06:39:34;10.93;;;6.85;;
35675;SDS011;21790;42.668;23.298;2023-03-17T06:42:01;8.80;;;6.07;;
35675;SDS011;21790;42.668;23.298;2023-03-17T06:44:28;11.65;;;7.18;;
35675;SDS011;21790;42.668;23.298;2023-03-17T06:46:54;9.02;;;6.25;;
35675;SDS011;21790;42.668;23.298;2023-03-17T06:49:21;13.25;;;6.88;;
35675;SDS011;21790;42.668;23.298;2023-03-17T06:51:46;10.25;;;6.53;;
35675;SDS011;21790;42.668;23.298;2023-03-17T06:54:12;11.55;;;6.15;;
35675;SDS011;21790;42.668;23.298;2023-03-17T06:56:38;8.68;;;5.93;;
35675;SDS011;21790;42.668;23.298;2023-03-17T06:59:03;12.30;;;7.10;;
35675;SDS011;21790;42.668;23.298;2023-03-17T07:01:29;12.68;;;7.05;;
35675;SDS011;21790;42.668;23.298;2023-03-17T07:03:55;10.98;;;6.68;;
35675;SDS011;21790;42.668;23.298;2023-03-17T07:06:21;11.07;;;6.78;;
35675;SDS011;21790;42.668;23.298;2023-03-17T07:08:47;9.27;;;5.68;;
35675;SDS011;21790;42.668;23.298;2023-03-17T07:11:15;11.57;;;7.22;;
35675;SDS011;21790;42.668;23.298;2023-03-17T07:13:41;12.93;;;7.50;;
35675;SDS011;21790;42.668;23.298;2023-03-17T07:16:12;10.30;;;6.75;;
35675;SDS011;21790;42.668;23.298;2023-03-17T07:18:39;11.25;;;6.95;;
35675;SDS011;21790;42.668;23.298;2023-03-17T07:21:04;8.85;;;6.63;;
35675;SDS011;21790;42.668;23.298;2023-03-17T07:23:31;13.05;;;7.63;;
35675;SDS011;21790;42.668;23.298;2023-03-17T07:25:58;17.08;;;9.10;;
35675;SDS011;21790;42.668;23.298;2023-03-17T07:28:23;16.38;;;6.85;;
35675;SDS011;21790;42.668;23.298;2023-03-17T07:30:49;12.25;;;7.63;;
35675;SDS011;21790;42.668;23.298;2023-03-17T07:33:17;18.92;;;8.10;;
35675;SDS011;21790;42.668;23.298;2023-03-17T07:35:49;19.75;;;7.95;;
35675;SDS011;21790;42.668;23.298;2023-03-17T07:38:17;12.63;;;7.20;;
35675;SDS011;21790;42.668;23.298;2023-03-17T07:40:44;12.00;;;5.47;;
35675;SDS011;21790;42.668;23.298;2023-03-17T07:43:12;11.68;;;5.70;;
35675;SDS011;21790;42.668;23.298;2023-03-17T07:45:38;12.27;;;5.30;;
35675;SDS011;21790;42.668;23.298;2023-03-17T07:48:04;11.20;;;5.20;;
35675;SDS011;21790;42.668;23.298;2023-03-17T07:50:31;8.68;;;4.97;;
35675;SDS011;21790;42.668;23.298;2023-03-17T07:52:58;9.70;;;5.38;;
35675;SDS011;21790;42.668;23.298;2023-03-17T07:55:24;10.27;;;6.25;;
35675;SDS011;21790;42.668;23.298;2023-03-17T07:57:51;9.02;;;5.57;;
35675;SDS011;21790;42.668;23.298;2023-03-17T08:00:19;8.63;;;5.35;;
35675;SDS011;21790;42.668;23.298;2023-03-17T08:02:46;13.32;;;6.00;;
35675;SDS011;21790;42.668;23.298;2023-03-17T08:05:11;9.07;;;5.53;;
35675;SDS011;21790;42.668;23.298;2023-03-17T08:07:38;8.90;;;5.45;;
35675;SDS011;21790;42.668;23.298;2023-03-17T08:10:05;9.68;;;4.90;;
35675;SDS011;21790;42.668;23.298;2023-03-17T08:12:34;8.52;;;4.80;;
35675;SDS011;21790;42.668;23.298;2023-03-17T08:15:00;7.97;;;5.03;;
35675;SDS011;21790;42.668;23.298;2023-03-17T08:17:26;7.90;;;5.20;;
35675;SDS011;21790;42.668;23.298;2023-03-17T08:19:52;9.50;;;5.30;;
35675;SDS011;21790;42.668;23.298;2023-03-17T08:22:18;11.27;;;5.75;;
35675;SDS011;21790;42.668;23.298;2023-03-17T08:24:44;11.88;;;5.90;;
35675;SDS011;21790;42.668;23.298;2023-03-17T08:27:10;8.02;;;5.15;;
35675;SDS011;21790;42.668;23.298;2023-03-17T08:29:35;8.07;;;5.45;;
35675;SDS011;21790;42.668;23.298;2023-03-17T08:32:01;9.88;;;6.22;;
35675;SDS011;21790;42.668;23.298;2023-03-17T08:34:27;9.40;;;6.03;;
35675;SDS011;21790;42.668;23.298;2023-03-17T08:36:53;10.35;;;5.68;;
35675;SDS011;21790;42.668;23.298;2023-03-17T08:39:18;11.73;;;5.90;;
35675;SDS011;21790;42.668;23.298;2023-03-17T08:41:44;8.65;;;5.40;;
35675;SDS011;21790;42.668;23.298;2023-03-17T08:44:10;9.57;;;6.03;;
35675;SDS011;21790;42.668;23.298;2023-03-17T08:46:37;11.63;;;7.30;;
35675;SDS011;21790;42.668;23.298;2023-03-17T08:49:04;11.27;;;6.85;;
35675;SDS011;21790;42.668;23.298;2023-03-17T08:51:31;14.25;;;7.63;;
35675;SDS011;21790;42.668;23.298;2023-03-17T08:53:58;8.52;;;6.10;;
35675;SDS011;21790;42.668;23.298;2023-03-17T08:56:24;8.68;;;5.45;;
35675;SDS011;21790;42.668;23.298;2023-03-17T08:58:51;10.38;;;5.90;;
35675;SDS011;21790;42.668;23.298;2023-03-17T09:01:17;11.23;;;5.82;;
35675;SDS011;21790;42.668;23.298;2023-03-17T09:03:44;9.65;;;5.85;;
35675;SDS011;21790;42.668;23.298;2023-03-17T09:06:11;11.00;;;6.72;;
35675;SDS011;21790;42.668;23.298;2023-03-17T09:08:38;12.02;;;6.47;;
35675;SDS011;21790;42.668;23.298;2023-03-17T09:11:09;8.93;;;6.65;;
35675;SDS011;21790;42.668;23.298;2023-03-17T09:13:37;12.05;;;6.38;;
35675;SDS011;21790;42.668;23.298;2023-03-17T09:16:03;10.73;;;6.28;;
35675;SDS011;21790;42.668;23.298;2023-03-17T09:18:30;10.55;;;6.43;;
35675;SDS011;21790;42.668;23.298;2023-03-17T09:20:57;13.55;;;7.03;;
35675;SDS011;21790;42.668;23.298;2023-03-17T09:23:23;10.65;;;6.47;;
35675;SDS011;21790;42.668;23.298;2023-03-17T09:25:49;7.40;;;5.65;;
35675;SDS011;21790;42.668;23.298;2023-03-17T09:28:15;6.03;;;4.53;;
35675;SDS011;21790;42.668;23.298;2023-03-17T09:30:41;6.43;;;3.55;;
35675;SDS011;21790;42.668;23.298;2023-03-17T09:33:11;6.10;;;3.50;;
35675;SDS011;21790;42.668;23.298;2023-03-17T09:35:37;8.07;;;4.35;;
35675;SDS011;21790;42.668;23.298;2023-03-17T09:38:04;6.97;;;4.60;;
35675;SDS011;21790;42.668;23.298;2023-03-17T09:40:32;8.85;;;5.47;;
35675;SDS011;21790;42.668;23.298;2023-03-17T09:43:32;6.35;;;4.75;;
35675;SDS011;21790;42.668;23.298;2023-03-17T09:49:00;6.35;;;3.70;;
35675;SDS011;21790;42.668;23.298;2023-03-17T09:51:32;8.38;;;5.30;;
35675;SDS011;21790;42.668;23.298;2023-03-17T09:54:03;9.50;;;6.32;;
35675;SDS011;21790;42.668;23.298;2023-03-17T09:56:55;11.75;;;6.28;;
35675;SDS011;21790;42.668;23.298;2023-03-17T09:59:34;9.00;;;6.07;;
35675;SDS011;21790;42.668;23.298;2023-03-17T10:02:13;9.02;;;6.53;;
35675;SDS011;21790;42.668;23.298;2023-03-17T10:04:44;10.30;;;6.57;;
35675;SDS011;21790;42.668;23.298;2023-03-17T10:07:18;12.98;;;7.68;;
35675;SDS011;21790;42.668;23.298;2023-03-17T10:10:08;15.02;;;7.72;;
35675;SDS011;21790;42.668;23.298;2023-03-17T10:12:54;16.02;;;7.43;;
35675;SDS011;21790;42.668;23.298;2023-03-17T10:15:37;10.50;;;7.25;;
35675;SDS011;21790;42.668;23.298;2023-03-17T10:18:15;11.02;;;6.30;;
35675;SDS011;21790;42.668;23.298;2023-03-17T10:20:45;10.35;;;6.13;;
35675;SDS011;21790;42.668;23.298;2023-03-17T10:23:16;11.95;;;7.00;;
35675;SDS011;21790;42.668;23.298;2023-03-17T10:25:50;10.48;;;6.53;;
35675;SDS011;21790;42.668;23.298;2023-03-17T10:28:28;12.20;;;8.10;;
35675;SDS011;21790;42.668;23.298;2023-03-17T10:31:10;13.75;;;7.20;;
35675;SDS011;21790;42.668;23.298;2023-03-17T10:33:45;13.40;;;7.38;;
35675;SDS011;21790;42.668;23.298;2023-03-17T10:36:30;10.40;;;6.75;;
35675;SDS011;21790;42.668;23.298;2023-03-17T10:39:03;11.52;;;7.32;;
35675;SDS011;21790;42.668;23.298;2023-03-17T10:41:39;14.73;;;7.55;;
35675;SDS011;21790;42.668;23.298;2023-03-17T10:44:27;10.90;;;7.07;;
35675;SDS011;21790;42.668;23.298;2023-03-17T10:46:56;13.05;;;6.75;;
35675;SDS011;21790;42.668;23.298;2023-03-17T10:49:22;11.88;;;6.80;;
35675;SDS011;21790;42.668;23.298;2023-03-17T10:51:52;19.88;;;7.25;;
35675;SDS011;21790;42.668;23.298;2023-03-17T10:54:22;11.40;;;6.95;;
35675;SDS011;21790;42.668;23.298;2023-03-17T10:56:54;14.27;;;7.00;;
35675;SDS011;21790;42.668;23.298;2023-03-17T10:59:29;12.57;;;7.38;;
35675;SDS011;21790;42.668;23.298;2023-03-17T11:02:23;12.82;;;7.28;;
35675;SDS011;21790;42.668;23.298;2023-03-17T11:05:16;14.73;;;7.78;;
35675;SDS011;21790;42.668;23.298;2023-03-17T11:07:47;11.55;;;6.80;;
35675;SDS011;21790;42.668;23.298;2023-03-17T11:10:20;12.45;;;6.70;;
35675;SDS011;21790;42.668;23.298;2023-03-17T11:12:58;12.00;;;6.90;;
35675;SDS011;21790;42.668;23.298;2023-03-17T11:15:37;12.98;;;6.70;;
35675;SDS011;21790;42.668;23.298;2023-03-17T11:20:49;17.30;;;7.05;;
35675;SDS011;21790;42.668;23.298;2023-03-17T11:32:21;16.90;;;7.45;;
35675;SDS011;21790;42.668;23.298;2023-03-17T11:46:27;12.88;;;6.32;;
35675;SDS011;21790;42.668;23.298;2023-03-17T11:54:49;9.02;;;4.63;;
35675;SDS011;21790;42.668;23.298;2023-03-17T12:00:33;9.07;;;5.25;;
35675;SDS011;21790;42.668;23.298;2023-03-17T12:06:48;9.90;;;5.22;;
35675;SDS011;21790;42.668;23.298;2023-03-17T12:12:02;8.65;;;4.78;;
35675;SDS011;21790;42.668;23.298;2023-03-17T12:14:34;10.60;;;5.20;;
35675;SDS011;21790;42.668;23.298;2023-03-17T12:17:46;9.40;;;4.47;;
35675;SDS011;21790;42.668;23.298;2023-03-17T12:20:17;12.77;;;5.00;;
35675;SDS011;21790;42.668;23.298;2023-03-17T12:30:28;7.53;;;4.15;;
35675;SDS011;21790;42.668;23.298;2023-03-17T12:33:05;6.43;;;3.97;;
35675;SDS011;21790;42.668;23.298;2023-03-17T12:35:40;6.45;;;4.25;;
35675;SDS011;21790;42.668;23.298;2023-03-17T12:38:10;6.47;;;3.85;;
35675;SDS011;21790;42.668;23.298;2023-03-17T12:41:00;6.65;;;4.70;;
35675;SDS011;21790;42.668;23.298;2023-03-17T12:46:28;7.28;;;4.20;;
35675;SDS011;21790;42.668;23.298;2023-03-17T12:52:05;5.70;;;3.85;;
35675;SDS011;21790;42.668;23.298;2023-03-17T12:54:49;8.85;;;4.93;;
35675;SDS011;21790;42.668;23.298;2023-03-17T12:57:26;7.53;;;4.57;;
35675;SDS011;21790;42.668;23.298;2023-03-17T13:00:45;8.82;;;4.15;;
35675;SDS011;21790;42.668;23.298;2023-03-17T13:03:16;7.45;;;4.40;;
35675;SDS011;21790;42.668;23.298;2023-03-17T13:05:51;5.38;;;3.03;;
35675;SDS011;21790;42.668;23.298;2023-03-17T13:08:23;4.90;;;2.90;;
35675;SDS011;21790;42.668;23.298;2023-03-17T13:11:12;5.05;;;3.00;;
35675;SDS011;21790;42.668;23.298;2023-03-17T13:16:30;4.97;;;3.08;;
35675;SDS011;21790;42.668;23.298;2023-03-17T13:19:18;4.88;;;2.85;;
35675;SDS011;21790;42.668;23.298;2023-03-17T13:24:41;4.30;;;2.10;;
35675;SDS011;21790;42.668;23.298;2023-03-17T13:33:00;2.08;;;1.85;;
35675;SDS011;21790;42.668;23.298;2023-03-17T13:49:40;3.65;;;1.95;;
35675;SDS011;21790;42.668;23.298;2023-03-17T13:52:12;5.22;;;2.10;;
35675;SDS011;21790;42.668;23.298;2023-03-17T13:54:47;3.55;;;2.03;;
35675;SDS011;21790;42.668;23.298;2023-03-17T13:57:22;2.58;;;1.75;;
35675;SDS011;21790;42.668;23.298;2023-03-17T13:59:54;4.70;;;2.20;;
35675;SDS011;21790;42.668;23.298;2023-03-17T14:02:23;5.53;;;2.20;;
35675;SDS011;21790;42.668;23.298;2023-03-17T14:08:28;2.47;;;1.85;;
35675;SDS011;21790;42.668;23.298;2023-03-17T14:11:39;1.90;;;1.70;;
35675;SDS011;21790;42.668;23.298;2023-03-17T14:19:40;5.32;;;2.47;;
35675;SDS011;21790;42.668;23.298;2023-03-17T14:22:24;3.63;;;2.17;;
35675;SDS011;21790;42.668;23.298;2023-03-17T14:24:53;4.28;;;2.20;;
35675;SDS011;21790;42.668;23.298;2023-03-17T14:27:32;3.83;;;2.97;;
35675;SDS011;21790;42.668;23.298;2023-03-17T14:30:07;3.95;;;2.35;;
35675;SDS011;21790;42.668;23.298;2023-03-17T14:32:40;7.45;;;2.70;;
35675;SDS011;21790;42.668;23.298;2023-03-17T14:35:12;3.55;;;2.30;;
35675;SDS011;21790;42.668;23.298;2023-03-17T14:37:38;4.75;;;2.97;;
35675;SDS011;21790;42.668;23.298;2023-03-17T14:40:27;4.70;;;2.50;;
35675;SDS011;21790;42.668;23.298;2023-03-17T14:43:03;4.05;;;2.40;;
35675;SDS011;21790;42.668;23.298;2023-03-17T14:48:31;2.78;;;2.22;;
35675;SDS011;21790;42.668;23.298;2023-03-17T14:54:02;5.28;;;2.70;;
35675;SDS011;21790;42.668;23.298;2023-03-17T14:56:46;5.68;;;2.22;;
35675;SDS011;21790;42.668;23.298;2023-03-17T15:02:21;6.47;;;2.53;;
35675;SDS011;21790;42.668;23.298;2023-03-17T15:04:54;5.60;;;2.28;;
35675;SDS011;21790;42.668;23.298;2023-03-17T15:07:40;3.53;;;2.33;;
35675;SDS011;21790;42.668;23.298;2023-03-17T15:10:13;3.38;;;2.50;;
35675;SDS011;21790;42.668;23.298;2023-03-17T15:12:41;6.25;;;2.25;;
35675;SDS011;21790;42.668;23.298;2023-03-17T15:15:25;2.78;;;2.30;;
35675;SDS011;21790;42.668;23.298;2023-03-17T15:20:28;2.88;;;2.50;;
35675;SDS011;21790;42.668;23.298;2023-03-17T15:22:58;3.35;;;2.50;;
35675;SDS011;21790;42.668;23.298;2023-03-17T15:31:11;6.65;;;3.95;;
35675;SDS011;21790;42.668;23.298;2023-03-17T15:33:38;6.93;;;3.50;;
35675;SDS011;21790;42.668;23.298;2023-03-17T15:38:40;3.63;;;2.97;;
35675;SDS011;21790;42.668;23.298;2023-03-17T15:41:10;4.68;;;2.90;;
35675;SDS011;21790;42.668;23.298;2023-03-17T15:43:37;4.43;;;2.88;;
35675;SDS011;21790;42.668;23.298;2023-03-17T15:46:04;6.82;;;3.17;;
35675;SDS011;21790;42.668;23.298;2023-03-17T15:48:34;4.40;;;3.20;;
35675;SDS011;21790;42.668;23.298;2023-03-17T15:51:03;8.38;;;3.00;;
35675;SDS011;21790;42.668;23.298;2023-03-17T15:53:29;6.53;;;3.78;;
35675;SDS011;21790;42.668;23.298;2023-03-17T15:55:56;4.43;;;3.15;;
35675;SDS011;21790;42.668;23.298;2023-03-17T15:58:23;6.90;;;3.40;;
35675;SDS011;21790;42.668;23.298;2023-03-17T16:00:53;9.00;;;3.90;;
35675;SDS011;21790;42.668;23.298;2023-03-17T16:06:52;13.90;;;3.83;;
35675;SDS011;21790;42.668;23.298;2023-03-17T16:11:49;6.00;;;3.33;;
35675;SDS011;21790;42.668;23.298;2023-03-17T16:16:44;10.57;;;4.28;;
35675;SDS011;21790;42.668;23.298;2023-03-17T16:19:14;6.28;;;4.38;;
35675;SDS011;21790;42.668;23.298;2023-03-17T16:21:44;10.88;;;4.82;;
35675;SDS011;21790;42.668;23.298;2023-03-17T16:24:18;7.25;;;4.07;;
35675;SDS011;21790;42.668;23.298;2023-03-17T16:26:47;8.40;;;5.70;;
35675;SDS011;21790;42.668;23.298;2023-03-17T16:29:19;9.23;;;4.28;;
35675;SDS011;21790;42.668;23.298;2023-03-17T16:31:46;6.10;;;4.35;;
35675;SDS011;21790;42.668;23.298;2023-03-17T16:34:18;5.05;;;3.17;;
35675;SDS011;21790;42.668;23.298;2023-03-17T16:36:51;5.95;;;3.72;;
35675;SDS011;21790;42.668;23.298;2023-03-17T16:39:20;7.40;;;4.00;;
35675;SDS011;21790;42.668;23.298;2023-03-17T16:41:55;7.20;;;4.47;;
35675;SDS011;21790;42.668;23.298;2023-03-17T16:44:21;6.85;;;4.10;;
35675;SDS011;21790;42.668;23.298;2023-03-17T16:46:47;7.05;;;4.13;;
35675;SDS011;21790;42.668;23.298;2023-03-17T16:51:43;7.70;;;3.65;;
35675;SDS011;21790;42.668;23.298;2023-03-17T16:54:11;5.85;;;3.95;;
35675;SDS011;21790;42.668;23.298;2023-03-17T16:56:37;10.13;;;4.28;;
35675;SDS011;21790;42.668;23.298;2023-03-17T16:59:06;8.32;;;4.47;;
35675;SDS011;21790;42.668;23.298;2023-03-17T17:01:43;8.05;;;4.15;;
35675;SDS011;21790;42.668;23.298;2023-03-17T17:04:09;7.22;;;3.97;;